Time;durP1;ratioP1;P1;durP2;ratioP2;P2;SDS_P1;SDS_P2;PMS_P1;PMS_P2;Temp;Humidity;BMP_temperature;BMP_pressure;BME280_temperature;BME280_humidity;BME280_pressure;Samples;Min_cycle;Max_cycle;Signal;HPM_P1;HPM_P2
2024/03/25 00:01:02;;;;;;;5.57;2.50;;;7.30;99.90;;;;;;5115605;28;20200;-74
2024/03/25 00:03:29;;;;;;;2.60;2.40;;;7.40;99.90;;;;;;5115642;28;20168;-74
2024/03/25 00:05:54;;;;;;;6.20;2.50;;;7.40;99.90;;;;;;5115571;28;20212;-74
2024/03/25 00:08:20;;;;;;;2.73;2.53;;;7.30;99.90;;;;;;5115361;28;20458;-74
2024/03/25 00:10:45;;;;;;;4.00;2.40;;;7.50;99.90;;;;;;5115475;28;20634;-73
2024/03/25 00:13:11;;;;;;;5.77;3.17;;;7.60;99.90;;;;;;5116061;28;20587;-73
2024/03/25 00:15:37;;;;;;;5.03;2.70;;;7.60;99.90;;;;;;5115697;28;20171;-73
2024/03/25 00:18:04;;;;;;;7.40;2.30;;;7.50;99.90;;;;;;5115207;28;20179;-74
2024/03/25 00:20:29;;;;;;;7.83;3.63;;;7.30;99.90;;;;;;5115397;28;20424;-73
2024/03/25 00:22:55;;;;;;;3.30;3.00;;;7.40;99.90;;;;;;5115507;28;20421;-74
2024/03/25 00:25:20;;;;;;;4.77;2.60;;;7.50;99.90;;;;;;5115111;28;20254;-74
2024/03/25 00:27:46;;;;;;;3.40;2.50;;;7.50;99.90;;;;;;5114906;28;20635;-74
2024/03/25 00:30:12;;;;;;;5.50;2.90;;;7.50;99.90;;;;;;5113633;28;20323;-72
2024/03/25 00:32:38;;;;;;;5.97;2.80;;;7.40;99.90;;;;;;5114947;28;20302;-75
2024/03/25 00:35:04;;;;;;;4.80;3.70;;;7.50;99.90;;;;;;5114831;28;20925;-72
2024/03/25 00:37:29;;;;;;;2.87;2.57;;;7.40;99.90;;;;;;5113709;28;20175;-75
2024/03/25 00:39:55;;;;;;;5.17;3.60;;;7.50;99.90;;;;;;5114734;28;20424;-74
2024/03/25 00:42:21;;;;;;;3.13;2.83;;;7.40;99.90;;;;;;5114814;28;20173;-76
2024/03/25 00:44:47;;;;;;;2.90;2.60;;;7.50;99.90;;;;;;5114890;28;20410;-73
2024/03/25 00:47:12;;;;;;;5.43;3.70;;;7.60;99.90;;;;;;5114850;28;20252;-73
2024/03/25 00:49:38;;;;;;;4.67;3.47;;;7.50;99.90;;;;;;5114714;28;20211;-73
2024/03/25 00:52:04;;;;;;;5.60;3.50;;;7.40;99.90;;;;;;5113569;28;20226;-74
2024/03/25 00:54:30;;;;;;;5.47;2.70;;;7.40;99.90;;;;;;5114546;28;20168;-76
2024/03/25 00:56:55;;;;;;;6.53;2.93;;;7.40;99.90;;;;;;5114521;28;20451;-75
2024/03/25 00:59:21;;;;;;;3.87;2.63;;;7.30;99.90;;;;;;5114292;28;20206;-75
2024/03/25 01:01:46;;;;;;;3.33;2.47;;;7.40;99.90;;;;;;5113187;28;20270;-76
2024/03/25 01:04:13;;;;;;;5.83;2.90;;;7.40;99.90;;;;;;5112893;28;20633;-74
2024/03/25 01:06:38;;;;;;;4.90;3.00;;;7.20;99.90;;;;;;5113194;28;20168;-73
2024/03/25 01:09:04;;;;;;;3.80;3.00;;;7.20;99.90;;;;;;5112467;28;20849;-73
2024/03/25 01:11:30;;;;;;;4.10;2.97;;;7.20;99.90;;;;;;5114194;28;20638;-74
2024/03/25 01:13:56;;;;;;;5.80;2.60;;;7.30;99.90;;;;;;5114246;28;20406;-73
2024/03/25 01:16:22;;;;;;;5.50;3.73;;;7.40;99.90;;;;;;5113974;28;20406;-75
2024/03/25 01:18:48;;;;;;;10.90;4.00;;;7.40;99.90;;;;;;5113917;28;20198;-74
2024/03/25 01:21:14;;;;;;;5.03;3.10;;;7.30;99.90;;;;;;5114277;28;20176;-74
2024/03/25 01:23:40;;;;;;;4.67;2.90;;;7.40;99.90;;;;;;5114168;28;20410;-73
2024/03/25 01:26:06;;;;;;;4.50;2.60;;;7.30;99.90;;;;;;5113821;28;20497;-74
2024/03/25 01:28:32;;;;;;;3.73;2.90;;;7.30;99.90;;;;;;5113596;28;20191;-74
2024/03/25 01:30:58;;;;;;;4.60;3.20;;;7.30;99.90;;;;;;5113790;28;20482;-73
2024/03/25 01:33:23;;;;;;;7.03;3.10;;;7.20;99.90;;;;;;5113593;28;20160;-73
2024/03/25 01:35:49;;;;;;;4.30;2.37;;;7.20;99.90;;;;;;5113884;28;20763;-73
2024/03/25 01:38:14;;;;;;;5.37;3.70;;;7.20;99.90;;;;;;5113500;28;20184;-73
2024/03/25 01:40:40;;;;;;;6.60;2.87;;;7.20;99.90;;;;;;5113238;28;20179;-74
2024/03/25 01:43:05;;;;;;;4.57;3.70;;;7.20;99.90;;;;;;5113733;28;20270;-74
2024/03/25 01:45:34;;;;;;;4.80;3.07;;;7.20;99.90;;;;;;5113437;28;20224;-74
2024/03/25 01:48:04;;;;;;;5.50;3.50;;;7.20;99.90;;;;;;5113423;28;20183;-74
2024/03/25 01:50:34;;;;;;;3.93;3.50;;;7.30;99.90;;;;;;5113216;28;21043;-74
2024/03/25 01:53:00;;;;;;;4.33;3.07;;;7.20;99.90;;;;;;5113440;28;20934;-73
2024/03/25 01:55:28;;;;;;;5.03;2.93;;;7.00;99.90;;;;;;5113491;28;20402;-73
2024/03/25 01:57:54;;;;;;;3.60;2.87;;;7.00;99.90;;;;;;5113092;28;20168;-74
2024/03/25 02:00:20;;;;;;;4.53;2.97;;;7.00;99.90;;;;;;5113265;28;20401;-72
2024/03/25 02:02:47;;;;;;;6.67;3.20;;;7.10;99.90;;;;;;5113331;28;20182;-73
2024/03/25 02:05:15;;;;;;;4.20;2.97;;;7.10;99.90;;;;;;5113499;28;20497;-74
2024/03/25 02:07:41;;;;;;;6.60;3.13;;;7.30;99.90;;;;;;5113225;28;20407;-74
2024/03/25 02:10:09;;;;;;;6.40;3.30;;;7.20;99.90;;;;;;5112955;28;20478;-74
2024/03/25 02:12:36;;;;;;;4.73;3.10;;;7.20;99.90;;;;;;5111765;28;20448;-73
2024/03/25 02:15:02;;;;;;;5.57;2.90;;;7.30;99.90;;;;;;5111708;28;20752;-74
2024/03/25 02:17:28;;;;;;;3.73;3.20;;;7.40;99.90;;;;;;5112838;28;20410;-73
2024/03/25 02:19:53;;;;;;;4.23;3.13;;;7.50;99.90;;;;;;5111515;28;20439;-74
2024/03/25 02:22:19;;;;;;;4.23;2.97;;;7.50;99.90;;;;;;5112898;28;20180;-74
2024/03/25 02:24:46;;;;;;;3.63;3.20;;;7.50;99.90;;;;;;5112906;28;20251;-73
2024/03/25 02:27:14;;;;;;;3.27;2.97;;;7.50;99.90;;;;;;5112982;28;20175;-74
2024/03/25 02:29:41;;;;;;;5.97;3.43;;;7.60;99.90;;;;;;5111440;28;20482;-74
2024/03/25 02:32:10;;;;;;;6.20;3.23;;;7.60;99.90;;;;;;5113153;28;20796;-74
2024/03/25 02:34:38;;;;;;;4.93;3.20;;;7.70;99.90;;;;;;5113013;28;20775;-74
2024/03/25 02:37:04;;;;;;;6.70;3.40;;;7.80;99.90;;;;;;5112841;28;20444;-74
2024/03/25 02:39:30;;;;;;;6.67;3.33;;;7.80;99.90;;;;;;5112737;28;20431;-74
2024/03/25 02:41:56;;;;;;;4.50;2.97;;;7.80;99.90;;;;;;5112825;28;20164;-75
2024/03/25 02:44:23;;;;;;;4.60;3.10;;;7.90;99.90;;;;;;5111622;28;20504;-75
2024/03/25 02:46:49;;;;;;;6.90;3.40;;;7.80;99.90;;;;;;5112978;28;20939;-74
2024/03/25 02:49:15;;;;;;;6.60;2.83;;;7.80;99.90;;;;;;5111331;28;20943;-75
2024/03/25 02:51:40;;;;;;;5.53;3.17;;;7.80;99.90;;;;;;5113029;28;20494;-74
2024/03/25 02:54:06;;;;;;;4.30;3.63;;;7.60;99.90;;;;;;5116993;28;20163;-75
2024/03/25 02:56:34;;;;;;;4.40;3.10;;;7.60;99.90;;;;;;5116699;28;20182;-74
2024/03/25 02:58:59;;;;;;;4.10;3.53;;;7.60;99.90;;;;;;5116447;28;20195;-74
2024/03/25 03:01:25;;;;;;;4.60;3.30;;;7.60;99.90;;;;;;5116612;28;20404;-75
2024/03/25 03:03:50;;;;;;;6.77;3.70;;;7.60;99.90;;;;;;5116476;28;20179;-74
2024/03/25 03:06:16;;;;;;;4.57;3.00;;;7.60;99.90;;;;;;5116495;28;20213;-74
2024/03/25 03:08:42;;;;;;;5.07;3.50;;;7.70;99.90;;;;;;5116302;28;20214;-74
2024/03/25 03:11:07;;;;;;;4.33;2.90;;;7.60;99.90;;;;;;5116455;28;20166;-75
2024/03/25 03:13:33;;;;;;;4.07;3.03;;;7.70;99.90;;;;;;5116393;28;20180;-75
2024/03/25 03:15:58;;;;;;;5.10;3.67;;;7.80;99.90;;;;;;5116523;28;20179;-74
2024/03/25 03:18:24;;;;;;;7.20;3.33;;;7.60;99.90;;;;;;5117272;28;20189;-74
2024/03/25 03:20:49;;;;;;;4.30;3.27;;;7.70;99.90;;;;;;5117077;28;20183;-74
2024/03/25 03:23:15;;;;;;;3.80;3.40;;;7.80;99.90;;;;;;5116413;28;20174;-74
2024/03/25 03:25:41;;;;;;;4.13;3.37;;;7.70;99.90;;;;;;5116243;28;20371;-74
2024/03/25 03:28:06;;;;;;;3.03;2.73;;;7.70;99.90;;;;;;5116217;28;20198;-74
2024/03/25 03:30:32;;;;;;;5.67;4.00;;;7.60;99.90;;;;;;5116134;28;20198;-74
2024/03/25 03:32:57;;;;;;;3.47;3.10;;;7.60;99.90;;;;;;5114747;28;20209;-74
2024/03/25 03:35:23;;;;;;;3.60;3.00;;;7.80;99.90;;;;;;5115933;28;20167;-73
2024/03/25 03:37:48;;;;;;;3.40;2.70;;;7.70;99.90;;;;;;5115925;28;20233;-74
2024/03/25 03:40:14;;;;;;;8.50;3.50;;;7.70;99.90;;;;;;5114798;28;20209;-74
2024/03/25 03:42:40;;;;;;;6.10;3.40;;;7.60;99.90;;;;;;5116264;28;20175;-74
2024/03/25 03:45:06;;;;;;;4.77;3.40;;;7.30;99.90;;;;;;5115984;28;20239;-74
2024/03/25 03:47:32;;;;;;;5.67;3.47;;;7.30;99.90;;;;;;5115885;28;20179;-74
2024/03/25 03:49:58;;;;;;;4.63;3.20;;;7.40;99.90;;;;;;5116725;28;20453;-75
2024/03/25 03:52:23;;;;;;;3.73;2.90;;;7.30;99.90;;;;;;5117857;28;20174;-74
2024/03/25 03:54:49;;;;;;;4.83;3.57;;;7.20;99.90;;;;;;5119611;28;20435;-74
2024/03/25 03:57:15;;;;;;;6.47;3.53;;;7.40;99.90;;;;;;5118248;28;20171;-74
2024/03/25 03:59:40;;;;;;;4.30;3.33;;;7.40;99.90;;;;;;5116665;28;20197;-74
2024/03/25 04:02:06;;;;;;;3.30;3.00;;;7.40;99.90;;;;;;5116479;28;20207;-75
2024/03/25 04:04:31;;;;;;;3.60;3.17;;;7.40;99.90;;;;;;5117664;28;20247;-74
2024/03/25 04:06:57;;;;;;;6.37;3.40;;;7.40;99.90;;;;;;5117810;28;20192;-73
2024/03/25 04:09:23;;;;;;;5.53;3.90;;;7.50;99.90;;;;;;5115467;28;20749;-74
2024/03/25 04:11:49;;;;;;;8.30;3.93;;;7.50;99.90;;;;;;5115346;28;20154;-74
2024/03/25 04:14:15;;;;;;;8.20;4.37;;;7.50;99.90;;;;;;5115442;28;20889;-75
2024/03/25 04:16:40;;;;;;;10.40;3.93;;;7.50;99.90;;;;;;5115339;28;20425;-74
2024/03/25 04:19:06;;;;;;;3.70;3.30;;;7.50;99.90;;;;;;5115033;28;20189;-74
2024/03/25 04:21:31;;;;;;;3.93;3.30;;;7.40;99.90;;;;;;5115219;28;20542;-75
2024/03/25 04:23:57;;;;;;;6.20;4.30;;;7.20;99.90;;;;;;5115131;28;20166;-74
2024/03/25 04:26:23;;;;;;;4.70;3.47;;;7.10;99.90;;;;;;5115286;28;20290;-74
2024/03/25 04:28:49;;;;;;;5.53;3.50;;;6.90;99.90;;;;;;5114892;28;20831;-74
2024/03/25 04:31:14;;;;;;;5.77;3.70;;;7.00;99.90;;;;;;5114929;28;20218;-74
2024/03/25 04:33:41;;;;;;;4.60;3.73;;;6.80;99.90;;;;;;5114993;28;20167;-74
2024/03/25 04:36:07;;;;;;;4.90;3.50;;;6.80;99.90;;;;;;5114858;28;20171;-74
2024/03/25 04:38:32;;;;;;;3.60;3.00;;;6.80;99.90;;;;;;5114793;28;20425;-75
2024/03/25 04:40:58;;;;;;;4.77;3.90;;;6.70;99.90;;;;;;5114857;28;20655;-75
2024/03/25 04:43:23;;;;;;;8.53;4.00;;;6.70;99.90;;;;;;5114820;28;20535;-74
2024/03/25 04:45:49;;;;;;;5.33;3.67;;;6.50;99.90;;;;;;5114789;28;20180;-74
2024/03/25 04:48:14;;;;;;;7.13;4.40;;;6.60;99.90;;;;;;5114751;28;20264;-74
2024/03/25 04:50:40;;;;;;;5.70;3.40;;;6.70;99.90;;;;;;5114638;28;20195;-74
2024/03/25 04:53:05;;;;;;;6.40;3.43;;;6.70;99.90;;;;;;5115062;28;20505;-74
2024/03/25 04:55:31;;;;;;;4.53;3.60;;;6.80;99.90;;;;;;5114806;28;20202;-74
2024/03/25 04:57:57;;;;;;;4.07;3.40;;;6.80;99.90;;;;;;5114485;28;20281;-74
2024/03/25 05:00:22;;;;;;;4.53;3.90;;;6.80;99.90;;;;;;5114287;28;20171;-74
2024/03/25 05:02:48;;;;;;;5.23;3.83;;;6.90;99.90;;;;;;5113015;28;20170;-73
2024/03/25 05:05:14;;;;;;;4.73;3.57;;;7.00;99.90;;;;;;5114196;28;20648;-73
2024/03/25 05:07:39;;;;;;;5.23;3.50;;;7.00;99.90;;;;;;5112732;28;20175;-73
2024/03/25 05:10:05;;;;;;;5.13;3.90;;;6.90;99.90;;;;;;5113983;28;20199;-73
2024/03/25 05:12:31;;;;;;;5.13;3.73;;;6.90;99.90;;;;;;5113920;28;20167;-74
2024/03/25 05:14:57;;;;;;;4.50;3.33;;;7.00;99.90;;;;;;5113354;28;20399;-73
2024/03/25 05:17:22;;;;;;;5.33;4.10;;;6.90;99.90;;;;;;5114105;28;20215;-73
2024/03/25 05:19:48;;;;;;;8.83;3.67;;;6.80;99.90;;;;;;5112779;28;20441;-72
2024/03/25 05:22:13;;;;;;;7.40;3.40;;;6.80;99.90;;;;;;5110718;28;20179;-73
2024/03/25 05:24:39;;;;;;;5.57;3.63;;;7.10;99.90;;;;;;5109975;28;20211;-74
2024/03/25 05:27:04;;;;;;;4.53;3.30;;;7.10;99.90;;;;;;5113749;28;20252;-74
2024/03/25 05:29:30;;;;;;;5.30;3.33;;;7.20;99.90;;;;;;5113610;28;20708;-73
2024/03/25 05:32:00;;;;;;;4.77;3.10;;;7.20;99.90;;;;;;5113714;28;20236;-74
2024/03/25 05:34:27;;;;;;;6.83;3.60;;;7.30;99.90;;;;;;5112281;28;20290;-74
2024/03/25 05:36:53;;;;;;;4.77;3.43;;;7.40;99.90;;;;;;5113558;28;20408;-74
2024/03/25 05:39:19;;;;;;;7.73;4.27;;;7.50;99.90;;;;;;5113559;28;20802;-74
2024/03/25 05:41:46;;;;;;;6.17;4.00;;;7.50;99.90;;;;;;5113535;28;20493;-74
2024/03/25 05:44:11;;;;;;;6.70;4.57;;;7.40;99.90;;;;;;5113866;28;20459;-74
2024/03/25 05:46:38;;;;;;;5.47;3.87;;;7.40;99.90;;;;;;5113587;28;20405;-73
2024/03/25 05:49:04;;;;;;;7.40;4.53;;;7.40;99.90;;;;;;5113811;28;20610;-75
2024/03/25 05:51:30;;;;;;;7.63;4.20;;;7.30;99.90;;;;;;5113119;28;20454;-73
2024/03/25 05:53:56;;;;;;;6.00;3.70;;;7.30;99.90;;;;;;5113078;28;20492;-73
2024/03/25 05:56:22;;;;;;;6.00;3.50;;;7.10;99.90;;;;;;5113142;28;20424;-74
2024/03/25 05:58:47;;;;;;;5.30;3.83;;;7.10;99.90;;;;;;5113218;28;20183;-74
2024/03/25 06:01:13;;;;;;;9.67;4.03;;;7.10;99.90;;;;;;5112945;28;20255;-74
2024/03/25 06:03:39;;;;;;;5.83;3.23;;;7.20;99.90;;;;;;5113101;28;20213;-73
2024/03/25 06:06:04;;;;;;;5.47;3.70;;;7.20;99.90;;;;;;5112599;28;20400;-74
2024/03/25 06:08:30;;;;;;;6.00;3.80;;;7.20;99.90;;;;;;5112789;28;20744;-74
2024/03/25 06:11:01;;;;;;;5.53;3.90;;;7.20;99.90;;;;;;5112913;28;20202;-73
2024/03/25 06:13:27;;;;;;;5.70;3.90;;;7.20;99.90;;;;;;5112927;28;20281;-74
2024/03/25 06:15:52;;;;;;;9.83;4.53;;;7.20;99.90;;;;;;5111536;28;20453;-74
2024/03/25 06:18:19;;;;;;;5.70;3.90;;;7.10;99.90;;;;;;5112685;28;20201;-74
2024/03/25 06:20:44;;;;;;;5.63;3.93;;;6.80;99.90;;;;;;5112834;28;20536;-73
2024/03/25 06:23:10;;;;;;;3.90;3.40;;;6.90;99.90;;;;;;5112404;28;20567;-73
2024/03/25 06:25:37;;;;;;;5.27;4.03;;;7.10;99.90;;;;;;5114376;28;20668;-74
2024/03/25 06:28:03;;;;;;;6.37;4.30;;;7.30;99.90;;;;;;5117025;28;20188;-74
2024/03/25 06:35:57;;;;;;;5.47;4.50;;;7.20;99.90;;;;;;5116899;28;20408;-73
2024/03/25 06:38:22;;;;;;;6.57;3.80;;;7.20;99.90;;;;;;5116607;28;20416;-73
2024/03/25 06:40:48;;;;;;;6.87;4.30;;;7.30;99.90;;;;;;5116863;28;20243;-72
2024/03/25 06:43:16;;;;;;;9.43;4.47;;;7.40;99.90;;;;;;5116387;28;20171;-75
2024/03/25 06:45:41;;;;;;;5.67;3.70;;;7.30;99.90;;;;;;5107373;28;20183;-77
2024/03/25 06:48:07;;;;;;;4.00;3.60;;;7.40;99.90;;;;;;5107148;28;20440;-76
2024/03/25 06:50:33;;;;;;;6.30;3.73;;;7.30;99.90;;;;;;5106851;28;20203;-77
2024/03/25 06:52:58;;;;;;;4.70;3.60;;;7.30;99.90;;;;;;5106996;28;20213;-75
2024/03/25 06:55:27;;;;;;;6.97;4.10;;;7.40;99.90;;;;;;5106834;28;20601;-74
2024/03/25 06:57:52;;;;;;;6.50;4.10;;;7.40;99.90;;;;;;5106834;28;20170;-75
2024/03/25 07:00:20;;;;;;;7.73;4.20;;;7.40;99.90;;;;;;5106909;28;20413;-72
2024/03/25 07:02:45;;;;;;;4.93;3.97;;;7.60;99.90;;;;;;5106702;28;20271;-73
2024/03/25 07:05:11;;;;;;;8.53;4.60;;;7.80;99.90;;;;;;5106946;28;20490;-74
2024/03/25 07:07:37;;;;;;;6.83;3.90;;;8.00;99.90;;;;;;5106686;28;20194;-73
2024/03/25 07:10:02;;;;;;;5.60;3.77;;;8.00;99.90;;;;;;5106245;28;20223;-74
2024/03/25 07:12:28;;;;;;;7.50;4.47;;;8.00;99.90;;;;;;5106948;28;20240;-75
2024/03/25 07:14:54;;;;;;;13.77;5.80;;;8.00;99.90;;;;;;5106758;28;20224;-74
2024/03/25 07:17:21;;;;;;;4.50;3.73;;;7.70;99.90;;;;;;5106565;28;20497;-74
2024/03/25 07:19:47;;;;;;;4.80;3.53;;;7.80;99.90;;;;;;5106526;28;20243;-74
2024/03/25 07:22:12;;;;;;;6.10;4.20;;;8.00;99.90;;;;;;5106432;28;20499;-74
2024/03/25 07:24:38;;;;;;;4.40;3.67;;;8.00;99.90;;;;;;5106398;28;20790;-76
2024/03/25 07:27:04;;;;;;;8.33;4.17;;;8.10;99.90;;;;;;5106726;28;20182;-74
2024/03/25 07:29:29;;;;;;;4.80;4.17;;;8.10;99.90;;;;;;5105942;28;20197;-74
2024/03/25 07:31:55;;;;;;;5.77;4.10;;;8.40;99.90;;;;;;5105210;28;20229;-74
2024/03/25 07:34:20;;;;;;;4.13;3.17;;;8.60;99.90;;;;;;5104822;28;20208;-74
2024/03/25 07:36:48;;;;;;;7.00;4.47;;;8.70;99.90;;;;;;5105820;28;20212;-73
2024/03/25 07:39:14;;;;;;;4.70;4.20;;;8.90;99.90;;;;;;5106310;28;20203;-73
2024/03/25 07:41:39;;;;;;;5.50;4.17;;;8.70;99.90;;;;;;5109519;28;20932;-74
2024/03/25 07:44:05;;;;;;;7.37;4.87;;;8.70;99.90;;;;;;5116555;28;20414;-74
2024/03/25 07:46:31;;;;;;;5.93;3.83;;;8.70;99.90;;;;;;5116230;28;20176;-73
2024/03/25 07:48:57;;;;;;;6.50;4.27;;;8.70;99.90;;;;;;5115462;28;20276;-73
2024/03/25 07:51:23;;;;;;;9.00;4.60;;;8.60;99.90;;;;;;5114565;28;20251;-74
2024/03/25 07:53:48;;;;;;;6.73;3.67;;;8.60;99.90;;;;;;5115314;28;20522;-74
2024/03/25 07:56:15;;;;;;;8.10;4.40;;;8.70;99.90;;;;;;5115129;28;20633;-73
2024/03/25 07:58:41;;;;;;;8.73;4.10;;;8.70;99.90;;;;;;5115327;28;20215;-74
2024/03/25 08:01:06;;;;;;;6.67;3.70;;;8.70;99.90;;;;;;5115041;28;20752;-72
2024/03/25 08:03:32;;;;;;;9.30;4.17;;;8.70;99.90;;;;;;5114049;27;20160;-74
2024/03/25 08:05:57;;;;;;;5.77;3.50;;;8.70;99.90;;;;;;5113890;28;20638;-74
2024/03/25 08:08:23;;;;;;;4.63;3.40;;;9.00;99.90;;;;;;5113755;28;20193;-74
2024/03/25 08:10:48;;;;;;;3.80;2.83;;;9.00;99.90;;;;;;5112996;28;20196;-74
2024/03/25 08:13:14;;;;;;;3.60;2.80;;;9.30;99.90;;;;;;5113026;28;20217;-74
2024/03/25 08:15:41;;;;;;;6.53;2.77;;;9.60;99.90;;;;;;5113044;28;20624;-74
2024/03/25 08:18:06;;;;;;;3.60;3.07;;;9.60;99.90;;;;;;5113464;28;20208;-74
2024/03/25 08:20:32;;;;;;;6.90;3.40;;;9.90;99.90;;;;;;5113125;28;20450;-74
2024/03/25 08:22:57;;;;;;;8.27;2.70;;;10.20;99.90;;;;;;5113734;28;20186;-73
2024/03/25 08:25:23;;;;;;;3.80;2.60;;;10.20;99.90;;;;;;5114649;28;20583;-74
2024/03/25 08:27:48;;;;;;;6.07;2.60;;;10.30;99.90;;;;;;5114494;28;20638;-73
2024/03/25 08:30:14;;;;;;;4.30;2.40;;;10.50;99.90;;;;;;5113206;28;20247;-74
2024/03/25 08:32:39;;;;;;;2.40;2.20;;;10.40;99.90;;;;;;5114504;28;20168;-74
2024/03/25 08:35:05;;;;;;;4.70;2.50;;;10.60;99.90;;;;;;5114373;28;20238;-73
2024/03/25 08:37:31;;;;;;;6.00;3.10;;;10.10;99.90;;;;;;5114281;28;20159;-72
2024/03/25 08:39:57;;;;;;;3.00;2.37;;;10.20;99.90;;;;;;5114501;28;20421;-73
2024/03/25 08:42:22;;;;;;;4.17;2.80;;;10.50;99.90;;;;;;5114217;28;20165;-74
2024/03/25 08:44:48;;;;;;;3.63;2.53;;;10.50;99.90;;;;;;5114245;28;20258;-72
2024/03/25 08:47:13;;;;;;;4.10;2.30;;;10.60;99.90;;;;;;5114226;28;20248;-73
2024/03/25 08:49:39;;;;;;;3.27;2.37;;;10.50;99.90;;;;;;5113150;28;20203;-72
2024/03/25 08:52:05;;;;;;;3.70;2.60;;;10.30;99.90;;;;;;5114115;28;20167;-74
2024/03/25 08:54:30;;;;;;;3.87;2.60;;;10.50;99.90;;;;;;5114061;28;20164;-73
2024/03/25 08:56:56;;;;;;;4.40;2.50;;;10.70;99.90;;;;;;5114025;28;20171;-74
2024/03/25 08:59:21;;;;;;;3.30;2.47;;;10.90;99.90;;;;;;5114012;28;20215;-74
2024/03/25 09:01:47;;;;;;;4.23;2.33;;;11.00;99.90;;;;;;5113837;28;20165;-73
2024/03/25 09:04:12;;;;;;;6.37;1.70;;;11.10;99.90;;;;;;5112615;28;20176;-73
2024/03/25 09:06:38;;;;;;;3.17;1.80;;;11.30;99.90;;;;;;5113935;28;20169;-74
2024/03/25 09:11:48;;;;;;;4.30;2.20;;;10.60;99.90;;;;;;5113846;28;20596;-74
2024/03/25 09:14:13;;;;;;;3.10;1.93;;;10.70;99.90;;;;;;5113982;28;20411;-74
2024/03/25 09:16:39;;;;;;;2.40;1.93;;;10.40;99.90;;;;;;5113867;28;20161;-73
2024/03/25 09:19:05;;;;;;;5.07;2.37;;;10.00;99.90;;;;;;5113574;28;20276;-73
2024/03/25 09:21:31;;;;;;;3.30;1.83;;;10.00;99.90;;;;;;5113539;28;20486;-72
2024/03/25 09:23:58;;;;;;;5.23;1.87;;;10.10;99.90;;;;;;5112237;28;20207;-73
2024/03/25 09:26:23;;;;;;;2.40;1.70;;;10.20;99.90;;;;;;5113742;28;20177;-74
2024/03/25 09:28:49;;;;;;;2.90;1.70;;;10.20;99.90;;;;;;5113215;28;20429;-72
2024/03/25 09:31:15;;;;;;;1.80;1.50;;;10.00;99.40;;;;;;5113632;28;20402;-74
2024/03/25 09:33:40;;;;;;;3.00;1.90;;;9.90;99.80;;;;;;5113236;28;20631;-73
2024/03/25 09:36:06;;;;;;;3.27;1.57;;;10.00;98.60;;;;;;5113286;28;20179;-73
2024/03/25 09:38:31;;;;;;;4.20;1.60;;;10.20;98.30;;;;;;5113266;28;20197;-75
2024/03/25 09:40:57;;;;;;;4.10;2.60;;;10.50;97.70;;;;;;5113054;28;20170;-74
2024/03/25 09:43:42;;;;;;;3.30;1.93;;;10.80;99.00;;;;;;5113153;28;20176;-73
2024/03/25 09:46:08;;;;;;;2.83;1.93;;;11.10;98.30;;;;;;5112947;28;20383;-74
2024/03/25 09:48:34;;;;;;;3.33;1.97;;;11.10;96.50;;;;;;5112932;28;20428;-73
2024/03/25 09:51:01;;;;;;;2.37;1.93;;;10.70;97.20;;;;;;5113323;28;20191;-73
2024/03/25 09:53:27;;;;;;;4.63;2.43;;;10.80;98.20;;;;;;5112976;28;20410;-73
2024/03/25 09:55:52;;;;;;;3.37;1.70;;;10.90;97.40;;;;;;5113021;28;20428;-73
2024/03/25 09:58:19;;;;;;;3.33;1.70;;;11.20;97.60;;;;;;5112784;28;20186;-73
2024/03/25 10:00:45;;;;;;;3.07;1.80;;;11.40;96.30;;;;;;5112457;28;20259;-73
2024/03/25 10:03:13;;;;;;;2.80;1.67;;;11.70;96.10;;;;;;5112863;28;20402;-73
2024/03/25 10:05:39;;;;;;;2.00;1.80;;;11.70;97.10;;;;;;5112902;28;20406;-74
2024/03/25 10:08:05;;;;;;;1.90;1.70;;;11.80;96.80;;;;;;5112581;28;20422;-73
2024/03/25 10:10:33;;;;;;;4.67;2.87;;;11.50;95.20;;;;;;5113049;28;20280;-74
2024/03/25 10:12:59;;;;;;;2.70;2.07;;;11.40;95.40;;;;;;5112741;28;20423;-74
2024/03/25 10:15:26;;;;;;;2.97;1.93;;;11.40;95.40;;;;;;5112685;28;20394;-74
2024/03/25 10:17:52;;;;;;;2.60;1.93;;;11.40;95.10;;;;;;5113020;28;20400;-74
2024/03/25 10:20:18;;;;;;;2.23;1.63;;;11.50;95.40;;;;;;5112781;28;20461;-74
2024/03/25 10:22:48;;;;;;;3.00;2.00;;;11.90;95.30;;;;;;5112697;28;20630;-73
2024/03/25 10:25:28;;;;;;;5.30;2.47;;;12.20;96.40;;;;;;5112638;28;20460;-73
2024/03/25 10:28:01;;;;;;;5.23;2.50;;;11.90;96.60;;;;;;5112543;28;20398;-74
2024/03/25 10:30:27;;;;;;;3.27;2.27;;;11.50;95.70;;;;;;5112549;28;20482;-73
2024/03/25 10:33:00;;;;;;;4.60;2.70;;;11.30;96.20;;;;;;5112438;28;20429;-72
2024/03/25 10:35:27;;;;;;;3.87;2.60;;;11.70;97.10;;;;;;5112417;28;20402;-72
2024/03/25 10:38:01;;;;;;;4.30;2.60;;;11.80;96.90;;;;;;5112651;28;20400;-73
2024/03/25 10:40:28;;;;;;;2.90;2.20;;;11.90;96.80;;;;;;5112610;28;20399;-73
2024/03/25 10:43:03;;;;;;;2.80;2.50;;;12.00;96.50;;;;;;5112677;28;20404;-73
2024/03/25 10:45:33;;;;;;;2.37;2.17;;;12.40;96.30;;;;;;5112612;28;20402;-74
2024/03/25 10:48:03;;;;;;;5.43;2.70;;;11.80;94.80;;;;;;5112562;28;20444;-72
2024/03/25 10:50:30;;;;;;;5.07;3.33;;;11.50;95.00;;;;;;5111051;28;20448;-73
2024/03/25 10:52:57;;;;;;;5.80;3.00;;;11.50;95.10;;;;;;5112390;28;20903;-72
2024/03/25 10:55:26;;;;;;;3.50;2.33;;;11.50;94.90;;;;;;5112559;28;20453;-74
2024/03/25 10:57:53;;;;;;;3.53;2.17;;;11.50;95.20;;;;;;5112288;28;20931;-74
2024/03/25 11:00:19;;;;;;;5.43;2.63;;;12.30;96.10;;;;;;5112750;28;20891;-73
2024/03/25 11:02:46;;;;;;;4.20;2.47;;;12.80;94.30;;;;;;5112856;28;20413;-73
2024/03/25 11:05:12;;;;;;;3.17;2.10;;;13.00;94.70;;;;;;5112561;28;20463;-73
2024/03/25 11:07:40;;;;;;;2.70;2.00;;;12.90;92.60;;;;;;5112287;28;20405;-73
2024/03/25 11:10:06;;;;;;;3.70;2.33;;;12.80;92.10;;;;;;5112107;28;20531;-74
2024/03/25 11:12:36;;;;;;;2.93;2.23;;;12.60;92.70;;;;;;5113383;28;20417;-73
2024/03/25 11:15:03;;;;;;;3.43;2.70;;;12.60;93.00;;;;;;5115978;28;20427;-73
2024/03/25 11:17:29;;;;;;;4.43;2.73;;;12.30;92.90;;;;;;5116459;28;20409;-74
2024/03/25 11:20:09;;;;;;;3.07;2.40;;;12.20;93.30;;;;;;5116180;28;20460;-73
2024/03/25 11:22:35;;;;;;;3.17;2.40;;;12.60;93.50;;;;;;5116625;28;20470;-73
2024/03/25 11:25:07;;;;;;;5.10;2.93;;;12.70;94.50;;;;;;5117359;28;20445;-74
2024/03/25 11:27:36;;;;;;;4.20;2.57;;;12.80;93.90;;;;;;5116650;28;20539;-74
2024/03/25 11:30:04;;;;;;;2.63;2.43;;;13.00;93.30;;;;;;5115894;28;20512;-74
2024/03/25 11:32:30;;;;;;;4.10;2.37;;;13.90;91.90;;;;;;5115817;28;20404;-73
2024/03/25 11:34:56;;;;;;;3.30;2.30;;;14.90;90.40;;;;;;5116616;28;20944;-74
2024/03/25 11:37:21;;;;;;;4.13;2.00;;;16.40;83.50;;;;;;5116802;28;20426;-74
2024/03/25 11:39:47;;;;;;;3.30;2.40;;;18.10;76.00;;;;;;5115582;27;20275;-73
2024/03/25 11:42:13;;;;;;;2.43;2.10;;;19.00;73.50;;;;;;5115814;28;20596;-73
2024/03/25 11:44:40;;;;;;;4.37;2.10;;;17.40;68.60;;;;;;5115604;28;20177;-73
2024/03/25 11:47:09;;;;;;;3.83;2.13;;;16.40;72.80;;;;;;5115498;27;20414;-73
2024/03/25 11:49:39;;;;;;;4.63;2.50;;;15.90;74.80;;;;;;5115423;28;20831;-72
2024/03/25 11:52:07;;;;;;;5.97;2.80;;;15.30;78.10;;;;;;5115432;28;20448;-74
2024/03/25 11:54:32;;;;;;;3.47;2.83;;;14.90;78.10;;;;;;5115377;28;20402;-72
2024/03/25 11:56:58;;;;;;;2.70;2.37;;;14.80;81.50;;;;;;5115301;28;20784;-73
2024/03/25 11:59:25;;;;;;;3.90;2.37;;;14.10;77.50;;;;;;5115254;28;20201;-73
2024/03/25 12:01:51;;;;;;;11.53;2.77;;;13.70;81.40;;;;;;5115218;28;20258;-73
2024/03/25 12:04:18;;;;;;;2.43;2.23;;;14.30;78.80;;;;;;5115087;28;20410;-73
2024/03/25 12:06:45;;;;;;;3.97;2.73;;;14.60;76.50;;;;;;5115304;28;20417;-74
2024/03/25 12:11:56;;;;;;;4.30;2.30;;;14.30;78.70;;;;;;5115524;28;20798;-73
2024/03/25 12:14:22;;;;;;;4.10;2.50;;;13.80;78.20;;;;;;5114981;28;20421;-73
2024/03/25 12:16:48;;;;;;;4.37;2.60;;;13.40;79.20;;;;;;5114870;28;20400;-72
2024/03/25 12:19:15;;;;;;;4.43;2.80;;;13.30;80.50;;;;;;5114768;28;20422;-73
2024/03/25 12:21:41;;;;;;;4.77;2.43;;;14.10;79.90;;;;;;5114792;28;20465;-73
2024/03/25 12:24:08;;;;;;;3.67;2.63;;;14.20;78.90;;;;;;5114566;27;20911;-75
2024/03/25 12:26:34;;;;;;;2.70;2.30;;;13.10;79.70;;;;;;5114744;28;20216;-74
2024/03/25 12:29:00;;;;;;;2.57;2.17;;;13.00;85.00;;;;;;5113904;28;20425;-72
2024/03/25 12:31:25;;;;;;;4.50;2.63;;;13.10;82.50;;;;;;5114339;28;20413;-72
2024/03/25 12:33:51;;;;;;;3.90;2.20;;;13.50;80.50;;;;;;5114511;28;20663;-73
2024/03/25 12:36:17;;;;;;;3.30;2.63;;;14.20;79.10;;;;;;5114409;28;20206;-74
2024/03/25 12:38:43;;;;;;;2.80;1.90;;;14.60;78.90;;;;;;5114470;28;20266;-74
2024/03/25 12:41:12;;;;;;;3.73;2.13;;;14.60;78.40;;;;;;5113496;28;20263;-74
2024/03/25 12:43:44;;;;;;;4.30;2.20;;;16.60;75.50;;;;;;5114395;28;20782;-73
2024/03/25 12:46:11;;;;;;;4.93;2.00;;;18.30;70.80;;;;;;5114471;28;20771;-74
2024/03/25 12:48:38;;;;;;;3.07;2.10;;;20.30;67.30;;;;;;5114248;28;20447;-74
2024/03/25 12:51:04;;;;;;;3.83;2.40;;;21.10;57.30;;;;;;5114199;28;20835;-73
2024/03/25 12:53:30;;;;;;;3.43;2.23;;;21.40;55.90;;;;;;5114240;28;20395;-73
2024/03/25 12:55:56;;;;;;;3.40;2.20;;;21.50;52.50;;;;;;5114227;28;20402;-74
2024/03/25 12:58:21;;;;;;;2.30;1.90;;;21.40;53.30;;;;;;5114058;28;20438;-74